sensor_id;sensor_type;location;lat;lon;timestamp;pressure;altitude;pressure_sealevel;temperature;humidity
50430;BME280;36359;41.556;-8.418;2022-08-21T00:02:23;100425.38;;;25.82;51.57
50430;BME280;36359;41.556;-8.418;2022-08-21T00:04:50;100427.50;;;25.80;51.99
50430;BME280;36359;41.556;-8.418;2022-08-21T00:07:18;100429.94;;;25.89;51.93
50430;BME280;36359;41.556;-8.418;2022-08-21T00:09:44;100422.38;;;26.01;51.80
50430;BME280;36359;41.556;-8.418;2022-08-21T00:12:09;100418.44;;;25.85;51.54
50430;BME280;36359;41.556;-8.418;2022-08-21T00:14:35;100419.34;;;26.02;51.66
50430;BME280;36359;41.556;-8.418;2022-08-21T00:17:02;100420.22;;;25.63;51.69
50430;BME280;36359;41.556;-8.418;2022-08-21T00:19:28;100415.63;;;25.68;51.53
50430;BME280;36359;41.556;-8.418;2022-08-21T00:21:54;100421.13;;;25.40;52.85
50430;BME280;36359;41.556;-8.418;2022-08-21T00:24:21;100411.97;;;25.68;52.95
50430;BME280;36359;41.556;-8.418;2022-08-21T00:26:48;100421.41;;;25.67;52.70
50430;BME280;36359;41.556;-8.418;2022-08-21T00:29:14;100434.25;;;25.44;52.24
50430;BME280;36359;41.556;-8.418;2022-08-21T00:31:41;100406.38;;;25.51;53.10
50430;BME280;36359;41.556;-8.418;2022-08-21T00:34:07;100415.34;;;25.70;52.79
50430;BME280;36359;41.556;-8.418;2022-08-21T00:36:34;100422.16;;;25.62;51.64
50430;BME280;36359;41.556;-8.418;2022-08-21T00:39:00;100417.41;;;25.74;52.31
50430;BME280;36359;41.556;-8.418;2022-08-21T00:41:26;100417.94;;;25.88;51.49
50430;BME280;36359;41.556;-8.418;2022-08-21T00:43:54;100426.72;;;25.28;53.35
50430;BME280;36359;41.556;-8.418;2022-08-21T00:46:20;100399.16;;;25.67;52.20
50430;BME280;36359;41.556;-8.418;2022-08-21T00:48:46;100412.09;;;25.21;53.83
50430;BME280;36359;41.556;-8.418;2022-08-21T00:51:23;100414.25;;;24.36;56.48
50430;BME280;36359;41.556;-8.418;2022-08-21T00:53:54;100416.94;;;24.55;56.15
50430;BME280;36359;41.556;-8.418;2022-08-21T00:56:22;100411.34;;;23.89;58.09
50430;BME280;36359;41.556;-8.418;2022-08-21T00:58:50;100416.06;;;22.78;62.12
50430;BME280;36359;41.556;-8.418;2022-08-21T01:01:17;100411.31;;;22.85;61.76
50430;BME280;36359;41.556;-8.418;2022-08-21T01:03:43;100421.97;;;22.38;63.15
50430;BME280;36359;41.556;-8.418;2022-08-21T01:06:10;100419.25;;;21.93;65.08
50430;BME280;36359;41.556;-8.418;2022-08-21T01:08:36;100415.84;;;22.55;63.19
50430;BME280;36359;41.556;-8.418;2022-08-21T01:11:03;100417.81;;;22.91;62.20
50430;BME280;36359;41.556;-8.418;2022-08-21T01:13:32;100407.38;;;23.67;59.98
50430;BME280;36359;41.556;-8.418;2022-08-21T01:16:00;100409.16;;;24.21;58.06
50430;BME280;36359;41.556;-8.418;2022-08-21T01:18:28;100407.50;;;23.90;58.55
50430;BME280;36359;41.556;-8.418;2022-08-21T01:21:03;100411.09;;;23.91;58.78
50430;BME280;36359;41.556;-8.418;2022-08-21T01:23:28;100409.81;;;24.05;58.19
50430;BME280;36359;41.556;-8.418;2022-08-21T01:25:54;100409.94;;;23.98;58.17
50430;BME280;36359;41.556;-8.418;2022-08-21T01:28:21;100410.34;;;24.25;57.68
50430;BME280;36359;41.556;-8.418;2022-08-21T01:30:48;100419.72;;;24.43;57.11
50430;BME280;36359;41.556;-8.418;2022-08-21T01:33:18;100406.94;;;24.65;56.30
50430;BME280;36359;41.556;-8.418;2022-08-21T01:35:43;100412.94;;;24.39;56.93
50430;BME280;36359;41.556;-8.418;2022-08-21T01:38:09;100419.16;;;23.62;59.25
50430;BME280;36359;41.556;-8.418;2022-08-21T01:40:35;100405.78;;;23.59;59.51
50430;BME280;36359;41.556;-8.418;2022-08-21T01:43:01;100409.56;;;23.95;58.53
50430;BME280;36359;41.556;-8.418;2022-08-21T01:45:27;100409.25;;;24.26;58.04
50430;BME280;36359;41.556;-8.418;2022-08-21T01:47:53;100414.53;;;24.46;57.20
50430;BME280;36359;41.556;-8.418;2022-08-21T01:50:20;100407.50;;;24.44;57.08
50430;BME280;36359;41.556;-8.418;2022-08-21T01:52:47;100412.03;;;24.68;56.52
50430;BME280;36359;41.556;-8.418;2022-08-21T01:55:14;100403.78;;;24.74;56.01
50430;BME280;36359;41.556;-8.418;2022-08-21T01:57:40;100408.41;;;24.80;55.98
50430;BME280;36359;41.556;-8.418;2022-08-21T02:00:10;100411.16;;;24.44;56.54
50430;BME280;36359;41.556;-8.418;2022-08-21T02:02:40;100399.91;;;23.86;58.26
50430;BME280;36359;41.556;-8.418;2022-08-21T02:05:08;100408.59;;;23.89;58.75
50430;BME280;36359;41.556;-8.418;2022-08-21T02:07:44;100396.94;;;24.11;58.00
50430;BME280;36359;41.556;-8.418;2022-08-21T02:10:12;100402.00;;;24.14;57.66
50430;BME280;36359;41.556;-8.418;2022-08-21T02:12:38;100397.31;;;24.14;57.86
50430;BME280;36359;41.556;-8.418;2022-08-21T02:15:06;100399.81;;;24.58;56.81
50430;BME280;36359;41.556;-8.418;2022-08-21T02:17:52;100406.69;;;24.55;56.15
50430;BME280;36359;41.556;-8.418;2022-08-21T02:20:50;100396.88;;;23.87;57.77
50430;BME280;36359;41.556;-8.418;2022-08-21T02:23:15;100408.09;;;23.44;59.11
50430;BME280;36359;41.556;-8.418;2022-08-21T02:25:41;100399.00;;;23.06;60.10
50430;BME280;36359;41.556;-8.418;2022-08-21T02:28:12;100394.38;;;22.75;61.68
50430;BME280;36359;41.556;-8.418;2022-08-21T02:30:44;100396.53;;;22.73;61.75
50430;BME280;36359;41.556;-8.418;2022-08-21T02:33:10;100396.13;;;22.70;62.23
50430;BME280;36359;41.556;-8.418;2022-08-21T02:35:39;100392.66;;;23.18;61.59
50430;BME280;36359;41.556;-8.418;2022-08-21T02:38:09;100395.59;;;23.23;60.48
50430;BME280;36359;41.556;-8.418;2022-08-21T02:40:38;100393.28;;;23.01;61.88
50430;BME280;36359;41.556;-8.418;2022-08-21T02:43:05;100394.56;;;22.80;62.06
50430;BME280;36359;41.556;-8.418;2022-08-21T02:45:32;100395.94;;;22.46;63.64
50430;BME280;36359;41.556;-8.418;2022-08-21T02:48:01;100403.66;;;22.37;64.08
50430;BME280;36359;41.556;-8.418;2022-08-21T02:50:42;100400.88;;;23.06;62.24
50430;BME280;36359;41.556;-8.418;2022-08-21T02:53:10;100403.22;;;23.27;61.02
50430;BME280;36359;41.556;-8.418;2022-08-21T02:55:44;100406.50;;;22.99;61.98
50430;BME280;36359;41.556;-8.418;2022-08-21T02:58:10;100412.47;;;22.53;63.13
50430;BME280;36359;41.556;-8.418;2022-08-21T03:00:37;100402.75;;;22.68;62.91
50430;BME280;36359;41.556;-8.418;2022-08-21T03:03:04;100414.28;;;22.40;63.54
50430;BME280;36359;41.556;-8.418;2022-08-21T03:05:31;100407.56;;;22.55;63.34
50430;BME280;36359;41.556;-8.418;2022-08-21T03:08:00;100414.28;;;22.40;63.62
50430;BME280;36359;41.556;-8.418;2022-08-21T03:10:26;100404.34;;;22.01;65.66
50430;BME280;36359;41.556;-8.418;2022-08-21T03:12:52;100403.84;;;22.42;63.89
50430;BME280;36359;41.556;-8.418;2022-08-21T03:15:22;100404.91;;;22.66;63.35
50430;BME280;36359;41.556;-8.418;2022-08-21T03:17:51;100401.44;;;22.96;62.02
50430;BME280;36359;41.556;-8.418;2022-08-21T03:20:27;100401.50;;;23.26;61.13
50430;BME280;36359;41.556;-8.418;2022-08-21T03:22:54;100387.66;;;23.45;60.68
50430;BME280;36359;41.556;-8.418;2022-08-21T03:25:21;100392.00;;;23.52;59.99
50430;BME280;36359;41.556;-8.418;2022-08-21T03:27:48;100401.22;;;22.98;60.95
50430;BME280;36359;41.556;-8.418;2022-08-21T03:30:17;100395.94;;;22.89;62.58
50430;BME280;36359;41.556;-8.418;2022-08-21T03:32:46;100393.06;;;22.59;62.50
50430;BME280;36359;41.556;-8.418;2022-08-21T03:35:12;100395.06;;;23.32;61.18
50430;BME280;36359;41.556;-8.418;2022-08-21T03:37:38;100395.13;;;23.26;60.25
50430;BME280;36359;41.556;-8.418;2022-08-21T03:40:06;100404.03;;;22.48;62.83
50430;BME280;36359;41.556;-8.418;2022-08-21T03:42:32;100401.25;;;22.16;64.26
50430;BME280;36359;41.556;-8.418;2022-08-21T03:44:58;100406.03;;;22.34;64.38
50430;BME280;36359;41.556;-8.418;2022-08-21T03:47:24;100407.00;;;22.46;63.35
50430;BME280;36359;41.556;-8.418;2022-08-21T03:49:50;100414.31;;;22.02;64.80
50430;BME280;36359;41.556;-8.418;2022-08-21T03:52:16;100417.00;;;22.15;64.89
50430;BME280;36359;41.556;-8.418;2022-08-21T03:54:43;100418.72;;;21.78;65.71
50430;BME280;36359;41.556;-8.418;2022-08-21T03:57:09;100417.34;;;21.62;66.45
50430;BME280;36359;41.556;-8.418;2022-08-21T03:59:36;100423.44;;;22.03;65.77
50430;BME280;36359;41.556;-8.418;2022-08-21T04:02:05;100415.13;;;22.84;63.20
50430;BME280;36359;41.556;-8.418;2022-08-21T04:04:31;100420.03;;;23.07;62.22
50430;BME280;36359;41.556;-8.418;2022-08-21T04:06:57;100416.13;;;23.33;61.62
50430;BME280;36359;41.556;-8.418;2022-08-21T04:09:24;100420.56;;;23.71;59.88
50430;BME280;36359;41.556;-8.418;2022-08-21T04:11:50;100420.22;;;23.79;59.44
50430;BME280;36359;41.556;-8.418;2022-08-21T04:14:17;100424.13;;;23.90;59.22
50430;BME280;36359;41.556;-8.418;2022-08-21T04:16:43;100424.66;;;24.11;58.46
50430;BME280;36359;41.556;-8.418;2022-08-21T04:19:11;100424.34;;;24.31;57.83
50430;BME280;36359;41.556;-8.418;2022-08-21T04:21:39;100418.22;;;23.68;59.33
50430;BME280;36359;41.556;-8.418;2022-08-21T04:24:07;100429.13;;;23.33;60.35
50430;BME280;36359;41.556;-8.418;2022-08-21T04:26:34;100421.50;;;22.66;62.28
50430;BME280;36359;41.556;-8.418;2022-08-21T04:29:00;100413.88;;;22.05;64.53
50430;BME280;36359;41.556;-8.418;2022-08-21T04:31:26;100418.97;;;21.70;65.82
50430;BME280;36359;41.556;-8.418;2022-08-21T04:33:54;100420.16;;;21.49;66.59
50430;BME280;36359;41.556;-8.418;2022-08-21T04:36:20;100421.63;;;21.51;66.77
50430;BME280;36359;41.556;-8.418;2022-08-21T04:38:46;100422.22;;;22.55;64.01
50430;BME280;36359;41.556;-8.418;2022-08-21T04:41:12;100422.03;;;23.00;62.53
50430;BME280;36359;41.556;-8.418;2022-08-21T04:43:38;100424.88;;;23.30;61.43
50430;BME280;36359;41.556;-8.418;2022-08-21T04:46:04;100415.75;;;23.78;59.74
50430;BME280;36359;41.556;-8.418;2022-08-21T04:48:31;100417.25;;;23.93;59.28
50430;BME280;36359;41.556;-8.418;2022-08-21T04:53:25;100429.66;;;23.90;58.69
50430;BME280;36359;41.556;-8.418;2022-08-21T04:55:54;100420.59;;;23.83;59.42
50430;BME280;36359;41.556;-8.418;2022-08-21T04:58:22;100420.22;;;23.79;59.25
50430;BME280;36359;41.556;-8.418;2022-08-21T05:00:52;100414.19;;;23.71;59.16
50430;BME280;36359;41.556;-8.418;2022-08-21T05:03:19;100413.66;;;23.25;60.54
50430;BME280;36359;41.556;-8.418;2022-08-21T05:05:45;100408.88;;;23.51;60.53
50430;BME280;36359;41.556;-8.418;2022-08-21T05:08:14;100409.81;;;23.26;60.26
50430;BME280;36359;41.556;-8.418;2022-08-21T05:10:41;100417.03;;;22.40;62.20
50430;BME280;36359;41.556;-8.418;2022-08-21T05:13:11;100423.16;;;21.79;64.32
50430;BME280;36359;41.556;-8.418;2022-08-21T05:15:39;100429.09;;;21.31;66.46
50430;BME280;36359;41.556;-8.418;2022-08-21T05:18:05;100424.63;;;22.20;65.04
50430;BME280;36359;41.556;-8.418;2022-08-21T05:20:32;100431.47;;;22.67;63.20
50430;BME280;36359;41.556;-8.418;2022-08-21T05:23:00;100434.28;;;22.04;64.34
50430;BME280;36359;41.556;-8.418;2022-08-21T05:25:26;100440.75;;;21.46;66.60
50430;BME280;36359;41.556;-8.418;2022-08-21T05:27:52;100441.47;;;21.08;67.53
50430;BME280;36359;41.556;-8.418;2022-08-21T05:30:20;100441.88;;;21.19;67.86
50430;BME280;36359;41.556;-8.418;2022-08-21T05:32:46;100443.34;;;21.86;67.07
50430;BME280;36359;41.556;-8.418;2022-08-21T05:35:12;100446.28;;;21.46;66.65
50430;BME280;36359;41.556;-8.418;2022-08-21T05:37:39;100448.13;;;20.94;68.55
50430;BME280;36359;41.556;-8.418;2022-08-21T05:40:05;100453.25;;;20.71;69.77
50430;BME280;36359;41.556;-8.418;2022-08-21T05:42:33;100454.47;;;20.88;69.77
50430;BME280;36359;41.556;-8.418;2022-08-21T05:44:59;100462.13;;;20.73;70.10
50430;BME280;36359;41.556;-8.418;2022-08-21T05:47:24;100470.19;;;20.54;70.83
50430;BME280;36359;41.556;-8.418;2022-08-21T05:49:50;100475.19;;;20.11;72.76
50430;BME280;36359;41.556;-8.418;2022-08-21T05:52:20;100480.47;;;19.99;73.41
50430;BME280;36359;41.556;-8.418;2022-08-21T05:54:46;100472.91;;;20.48;72.44
50430;BME280;36359;41.556;-8.418;2022-08-21T05:57:12;100482.69;;;20.83;70.71
50430;BME280;36359;41.556;-8.418;2022-08-21T05:59:38;100489.28;;;20.82;70.45
50430;BME280;36359;41.556;-8.418;2022-08-21T06:02:04;100485.69;;;21.67;68.15
50430;BME280;36359;41.556;-8.418;2022-08-21T06:04:30;100488.50;;;22.68;64.74
50430;BME280;36359;41.556;-8.418;2022-08-21T06:06:55;100493.41;;;22.92;62.97
50430;BME280;36359;41.556;-8.418;2022-08-21T06:09:21;100498.88;;;22.48;63.61
50430;BME280;36359;41.556;-8.418;2022-08-21T06:11:47;100505.88;;;22.12;65.67
50430;BME280;36359;41.556;-8.418;2022-08-21T06:14:16;100506.31;;;22.73;63.77
50430;BME280;36359;41.556;-8.418;2022-08-21T06:16:42;100507.09;;;22.55;63.85
50430;BME280;36359;41.556;-8.418;2022-08-21T06:19:07;100506.00;;;22.56;63.75
50430;BME280;36359;41.556;-8.418;2022-08-21T06:21:33;100509.31;;;22.71;63.50
50430;BME280;36359;41.556;-8.418;2022-08-21T06:23:59;100516.31;;;23.24;61.89
50430;BME280;36359;41.556;-8.418;2022-08-21T06:26:25;100512.75;;;23.17;60.80
50430;BME280;36359;41.556;-8.418;2022-08-21T06:28:51;100513.59;;;22.42;62.41
50430;BME280;36359;41.556;-8.418;2022-08-21T06:31:27;100514.06;;;21.87;65.00
50430;BME280;36359;41.556;-8.418;2022-08-21T06:33:53;100508.81;;;22.24;65.15
50430;BME280;36359;41.556;-8.418;2022-08-21T06:36:19;100515.19;;;22.25;64.36
50430;BME280;36359;41.556;-8.418;2022-08-21T06:38:49;100518.50;;;21.30;67.83
50430;BME280;36359;41.556;-8.418;2022-08-21T06:41:14;100512.41;;;20.95;70.19
50430;BME280;36359;41.556;-8.418;2022-08-21T06:43:40;100510.06;;;20.98;70.07
50430;BME280;36359;41.556;-8.418;2022-08-21T06:46:07;100516.66;;;20.71;70.92
50430;BME280;36359;41.556;-8.418;2022-08-21T06:48:33;100517.91;;;21.01;69.94
50430;BME280;36359;41.556;-8.418;2022-08-21T06:51:00;100521.88;;;20.39;72.91
50430;BME280;36359;41.556;-8.418;2022-08-21T06:53:26;100518.69;;;20.35;73.12
50430;BME280;36359;41.556;-8.418;2022-08-21T06:55:52;100525.84;;;20.16;74.31
50430;BME280;36359;41.556;-8.418;2022-08-21T06:58:18;100527.81;;;20.36;73.16
50430;BME280;36359;41.556;-8.418;2022-08-21T07:00:47;100522.38;;;20.89;71.89
50430;BME280;36359;41.556;-8.418;2022-08-21T07:03:43;100531.22;;;21.51;69.18
50430;BME280;36359;41.556;-8.418;2022-08-21T07:06:10;100529.66;;;21.62;68.08
50430;BME280;36359;41.556;-8.418;2022-08-21T07:08:37;100529.41;;;21.83;67.21
50430;BME280;36359;41.556;-8.418;2022-08-21T07:11:09;100528.22;;;21.52;68.58
50430;BME280;36359;41.556;-8.418;2022-08-21T07:13:36;100532.75;;;21.92;67.18
50430;BME280;36359;41.556;-8.418;2022-08-21T07:16:02;100537.19;;;22.38;65.32
50430;BME280;36359;41.556;-8.418;2022-08-21T07:18:28;100535.34;;;21.80;67.33
50430;BME280;36359;41.556;-8.418;2022-08-21T07:20:54;100540.34;;;21.51;68.48
50430;BME280;36359;41.556;-8.418;2022-08-21T07:23:27;100541.44;;;21.24;69.86
50430;BME280;36359;41.556;-8.418;2022-08-21T07:25:54;100541.88;;;21.21;70.06
50430;BME280;36359;41.556;-8.418;2022-08-21T07:28:20;100544.81;;;21.46;69.41
50430;BME280;36359;41.556;-8.418;2022-08-21T07:30:50;100538.63;;;21.44;69.74
50430;BME280;36359;41.556;-8.418;2022-08-21T07:33:17;100553.25;;;21.71;68.51
50430;BME280;36359;41.556;-8.418;2022-08-21T07:35:43;100551.38;;;22.10;67.19
50430;BME280;36359;41.556;-8.418;2022-08-21T07:38:09;100538.72;;;22.65;64.66
50430;BME280;36359;41.556;-8.418;2022-08-21T07:40:35;100550.97;;;22.76;64.26
50430;BME280;36359;41.556;-8.418;2022-08-21T07:43:01;100539.16;;;22.87;63.84
50430;BME280;36359;41.556;-8.418;2022-08-21T07:45:26;100540.41;;;22.66;64.81
50430;BME280;36359;41.556;-8.418;2022-08-21T07:47:52;100540.53;;;22.78;64.14
50430;BME280;36359;41.556;-8.418;2022-08-21T07:50:19;100547.31;;;23.32;62.49
50430;BME280;36359;41.556;-8.418;2022-08-21T07:52:45;100541.00;;;23.25;62.19
50430;BME280;36359;41.556;-8.418;2022-08-21T07:55:13;100539.94;;;23.63;60.56
50430;BME280;36359;41.556;-8.418;2022-08-21T07:57:40;100536.19;;;23.14;62.03
50430;BME280;36359;41.556;-8.418;2022-08-21T08:00:08;100537.56;;;23.48;61.23
50430;BME280;36359;41.556;-8.418;2022-08-21T08:02:38;100530.09;;;23.67;60.75
50430;BME280;36359;41.556;-8.418;2022-08-21T08:05:06;100531.56;;;24.07;59.25
50430;BME280;36359;41.556;-8.418;2022-08-21T08:07:33;100531.34;;;23.90;59.64
50430;BME280;36359;41.556;-8.418;2022-08-21T08:10:00;100527.78;;;23.46;60.97
50430;BME280;36359;41.556;-8.418;2022-08-21T08:12:26;100533.88;;;23.91;59.80
50430;BME280;36359;41.556;-8.418;2022-08-21T08:14:56;100526.75;;;24.44;58.14
50430;BME280;36359;41.556;-8.418;2022-08-21T08:17:22;100529.59;;;24.67;57.13
50430;BME280;36359;41.556;-8.418;2022-08-21T08:19:49;100527.72;;;24.80;56.31
50430;BME280;36359;41.556;-8.418;2022-08-21T08:22:17;100526.00;;;24.67;56.98
50430;BME280;36359;41.556;-8.418;2022-08-21T08:24:47;100524.31;;;24.36;57.59
50430;BME280;36359;41.556;-8.418;2022-08-21T08:27:14;100523.19;;;24.25;57.81
50430;BME280;36359;41.556;-8.418;2022-08-21T08:29:40;100528.81;;;23.70;59.79
50430;BME280;36359;41.556;-8.418;2022-08-21T08:32:06;100528.25;;;23.79;59.15
50430;BME280;36359;41.556;-8.418;2022-08-21T08:34:37;100531.81;;;23.87;58.82
50430;BME280;36359;41.556;-8.418;2022-08-21T08:37:03;100521.88;;;23.97;59.07
50430;BME280;36359;41.556;-8.418;2022-08-21T08:39:30;100523.19;;;23.76;59.45
50430;BME280;36359;41.556;-8.418;2022-08-21T08:42:00;100532.13;;;23.78;59.72
50430;BME280;36359;41.556;-8.418;2022-08-21T08:44:29;100534.59;;;23.87;59.30
50430;BME280;36359;41.556;-8.418;2022-08-21T08:46:59;100531.19;;;23.85;59.23
50430;BME280;36359;41.556;-8.418;2022-08-21T08:49:42;100528.69;;;24.13;58.12
50430;BME280;36359;41.556;-8.418;2022-08-21T08:52:26;100523.97;;;24.14;58.38
50430;BME280;36359;41.556;-8.418;2022-08-21T08:55:32;100532.75;;;24.41;57.45
50430;BME280;36359;41.556;-8.418;2022-08-21T08:57:59;100529.00;;;24.65;56.66
50430;BME280;36359;41.556;-8.418;2022-08-21T09:00:28;100535.53;;;24.59;56.82
50430;BME280;36359;41.556;-8.418;2022-08-21T09:02:56;100529.13;;;24.40;56.92
50430;BME280;36359;41.556;-8.418;2022-08-21T09:08:20;100527.47;;;24.93;55.71
50430;BME280;36359;41.556;-8.418;2022-08-21T09:11:06;100526.78;;;24.98;55.77
50430;BME280;36359;41.556;-8.418;2022-08-21T09:14:01;100532.56;;;25.08;55.37
50430;BME280;36359;41.556;-8.418;2022-08-21T09:24:42;100537.88;;;25.09;54.64
50430;BME280;36359;41.556;-8.418;2022-08-21T09:27:17;100529.91;;;24.89;55.74
50430;BME280;36359;41.556;-8.418;2022-08-21T09:29:47;100526.44;;;25.18;54.97
50430;BME280;36359;41.556;-8.418;2022-08-21T09:32:43;100523.16;;;25.21;53.33
50430;BME280;36359;41.556;-8.418;2022-08-21T09:35:14;100517.50;;;25.27;51.79
50430;BME280;36359;41.556;-8.418;2022-08-21T09:37:57;100528.00;;;25.37;52.08
50430;BME280;36359;41.556;-8.418;2022-08-21T09:40:40;100523.63;;;25.53;51.38
50430;BME280;36359;41.556;-8.418;2022-08-21T09:43:18;100514.50;;;25.81;48.52
50430;BME280;36359;41.556;-8.418;2022-08-21T09:45:46;100530.16;;;25.35;51.08
50430;BME280;36359;41.556;-8.418;2022-08-21T09:48:23;100527.50;;;25.40;51.64
50430;BME280;36359;41.556;-8.418;2022-08-21T09:50:50;100527.63;;;25.57;52.01
50430;BME280;36359;41.556;-8.418;2022-08-21T09:53:19;100528.56;;;25.74;52.29
50430;BME280;36359;41.556;-8.418;2022-08-21T09:55:49;100527.22;;;25.77;48.37
50430;BME280;36359;41.556;-8.418;2022-08-21T09:58:37;100527.91;;;25.96;48.27
50430;BME280;36359;41.556;-8.418;2022-08-21T10:01:06;100530.00;;;25.89;49.27
50430;BME280;36359;41.556;-8.418;2022-08-21T10:03:38;100525.53;;;25.64;47.23
50430;BME280;36359;41.556;-8.418;2022-08-21T10:06:06;100530.63;;;25.55;51.34
50430;BME280;36359;41.556;-8.418;2022-08-21T10:08:36;100540.50;;;25.87;47.88
50430;BME280;36359;41.556;-8.418;2022-08-21T10:11:09;100538.38;;;26.05;47.44
50430;BME280;36359;41.556;-8.418;2022-08-21T10:13:47;100527.09;;;26.24;46.35
50430;BME280;36359;41.556;-8.418;2022-08-21T10:19:41;100522.38;;;26.41;47.98
50430;BME280;36359;41.556;-8.418;2022-08-21T10:24:29;100527.09;;;26.41;45.83
50430;BME280;36359;41.556;-8.418;2022-08-21T10:27:18;100523.78;;;26.56;48.44
50430;BME280;36359;41.556;-8.418;2022-08-21T10:29:55;100516.41;;;26.78;45.43
50430;BME280;36359;41.556;-8.418;2022-08-21T10:35:24;100514.72;;;26.77;43.00
50430;BME280;36359;41.556;-8.418;2022-08-21T10:41:06;100508.13;;;26.83;45.59
50430;BME280;36359;41.556;-8.418;2022-08-21T10:44:08;100508.28;;;26.93;43.05
50430;BME280;36359;41.556;-8.418;2022-08-21T10:49:26;100496.00;;;26.89;41.51
50430;BME280;36359;41.556;-8.418;2022-08-21T10:54:52;100495.19;;;27.11;44.11
50430;BME280;36359;41.556;-8.418;2022-08-21T11:00:12;100496.03;;;27.28;43.34
50430;BME280;36359;41.556;-8.418;2022-08-21T11:05:20;100497.44;;;27.48;41.65
50430;BME280;36359;41.556;-8.418;2022-08-21T11:08:02;100500.63;;;27.56;43.48
50430;BME280;36359;41.556;-8.418;2022-08-21T11:11:01;100490.84;;;27.54;41.11
50430;BME280;36359;41.556;-8.418;2022-08-21T11:13:42;100485.66;;;27.62;42.37
50430;BME280;36359;41.556;-8.418;2022-08-21T11:18:41;100478.84;;;27.53;42.00
50430;BME280;36359;41.556;-8.418;2022-08-21T11:21:35;100476.03;;;27.75;40.47
50430;BME280;36359;41.556;-8.418;2022-08-21T11:24:17;100475.78;;;28.21;38.70
50430;BME280;36359;41.556;-8.418;2022-08-21T11:29:37;100467.56;;;27.65;40.33
50430;BME280;36359;41.556;-8.418;2022-08-21T11:32:29;100475.97;;;28.14;36.62
50430;BME280;36359;41.556;-8.418;2022-08-21T11:45:59;100462.78;;;29.01;34.08
50430;BME280;36359;41.556;-8.418;2022-08-21T11:52:22;100461.25;;;29.15;32.26
50430;BME280;36359;41.556;-8.418;2022-08-21T11:55:08;100464.13;;;28.93;31.22
50430;BME280;36359;41.556;-8.418;2022-08-21T12:00:43;100459.91;;;28.91;36.23
50430;BME280;36359;41.556;-8.418;2022-08-21T12:06:13;100452.41;;;28.96;31.19
50430;BME280;36359;41.556;-8.418;2022-08-21T12:08:42;100449.66;;;29.02;29.12
50430;BME280;36359;41.556;-8.418;2022-08-21T12:11:23;100444.56;;;29.31;30.76
50430;BME280;36359;41.556;-8.418;2022-08-21T12:14:13;100436.00;;;29.58;27.90
50430;BME280;36359;41.556;-8.418;2022-08-21T12:16:47;100440.31;;;29.23;30.44
50430;BME280;36359;41.556;-8.418;2022-08-21T12:19:29;100432.44;;;29.68;27.47
50430;BME280;36359;41.556;-8.418;2022-08-21T12:24:35;100440.66;;;29.95;26.89
50430;BME280;36359;41.556;-8.418;2022-08-21T12:27:23;100431.16;;;30.16;30.05
50430;BME280;36359;41.556;-8.418;2022-08-21T12:29:55;100424.75;;;30.21;27.42
50430;BME280;36359;41.556;-8.418;2022-08-21T12:32:30;100431.72;;;30.08;26.45
50430;BME280;36359;41.556;-8.418;2022-08-21T12:35:21;100426.03;;;29.72;32.54
50430;BME280;36359;41.556;-8.418;2022-08-21T12:37:59;100415.19;;;29.96;26.94
50430;BME280;36359;41.556;-8.418;2022-08-21T12:40:33;100407.09;;;30.20;26.37
50430;BME280;36359;41.556;-8.418;2022-08-21T12:43:03;100401.81;;;30.29;28.21
50430;BME280;36359;41.556;-8.418;2022-08-21T12:45:37;100411.84;;;30.20;26.86
50430;BME280;36359;41.556;-8.418;2022-08-21T12:48:14;100404.63;;;30.54;27.31
50430;BME280;36359;41.556;-8.418;2022-08-21T12:50:58;100404.91;;;30.48;25.82
50430;BME280;36359;41.556;-8.418;2022-08-21T12:53:55;100408.25;;;30.50;26.54
50430;BME280;36359;41.556;-8.418;2022-08-21T12:56:24;100402.94;;;30.23;26.83
50430;BME280;36359;41.556;-8.418;2022-08-21T12:58:53;100395.66;;;30.32;27.33
50430;BME280;36359;41.556;-8.418;2022-08-21T13:01:25;100398.72;;;30.71;26.68
50430;BME280;36359;41.556;-8.418;2022-08-21T13:03:55;100390.31;;;30.56;27.36
50430;BME280;36359;41.556;-8.418;2022-08-21T13:06:23;100388.38;;;30.67;27.88
50430;BME280;36359;41.556;-8.418;2022-08-21T13:08:57;100396.72;;;31.08;28.41
50430;BME280;36359;41.556;-8.418;2022-08-21T13:11:24;100389.22;;;30.31;30.52
50430;BME280;36359;41.556;-8.418;2022-08-21T13:13:51;100381.13;;;30.40;30.06
50430;BME280;36359;41.556;-8.418;2022-08-21T13:16:23;100384.47;;;30.52;29.93
50430;BME280;36359;41.556;-8.418;2022-08-21T13:21:29;100382.19;;;30.65;30.22
50430;BME280;36359;41.556;-8.418;2022-08-21T13:24:08;100385.56;;;30.67;30.74
50430;BME280;36359;41.556;-8.418;2022-08-21T13:26:35;100377.16;;;30.67;30.46
50430;BME280;36359;41.556;-8.418;2022-08-21T13:29:12;100391.44;;;30.70;31.18
50430;BME280;36359;41.556;-8.418;2022-08-21T13:31:39;100385.56;;;30.87;30.84
50430;BME280;36359;41.556;-8.418;2022-08-21T13:34:09;100379.94;;;30.92;31.13
50430;BME280;36359;41.556;-8.418;2022-08-21T13:36:39;100377.72;;;30.79;31.05
50430;BME280;36359;41.556;-8.418;2022-08-21T13:39:15;100379.38;;;31.00;30.51
50430;BME280;36359;41.556;-8.418;2022-08-21T13:41:45;100372.66;;;30.76;31.60
50430;BME280;36359;41.556;-8.418;2022-08-21T13:44:24;100369.28;;;30.99;31.50
50430;BME280;36359;41.556;-8.418;2022-08-21T13:46:57;100370.41;;;31.04;30.94
50430;BME280;36359;41.556;-8.418;2022-08-21T13:49:36;100374.19;;;31.43;31.03
50430;BME280;36359;41.556;-8.418;2022-08-21T13:52:04;100367.59;;;31.04;31.58
50430;BME280;36359;41.556;-8.418;2022-08-21T13:54:38;100362.13;;;31.48;30.98
50430;BME280;36359;41.556;-8.418;2022-08-21T13:57:19;100364.72;;;31.19;31.39
50430;BME280;36359;41.556;-8.418;2022-08-21T13:59:45;100357.94;;;31.40;31.97
50430;BME280;36359;41.556;-8.418;2022-08-21T14:02:23;100357.03;;;30.60;33.53
50430;BME280;36359;41.556;-8.418;2022-08-21T14:04:56;100367.81;;;31.17;34.06